createdAt,value
2024-03-11T00:00:31.497Z,91
2024-03-11T00:01:31.575Z,91
2024-03-11T00:02:31.543Z,91
2024-03-11T00:03:31.472Z,91
2024-03-11T00:04:31.518Z,91
2024-03-11T00:05:31.594Z,91
2024-03-11T00:06:31.449Z,91
2024-03-11T00:07:31.481Z,91
2024-03-11T00:08:31.630Z,91
2024-03-11T00:09:31.488Z,91
2024-03-11T00:10:31.528Z,92
2024-03-11T00:11:31.608Z,92
2024-03-11T00:12:31.557Z,92
2024-03-11T00:13:31.548Z,92
2024-03-11T00:14:31.573Z,92
2024-03-11T00:15:31.505Z,92
2024-03-11T00:16:31.531Z,92
2024-03-11T00:17:31.600Z,92
2024-03-11T00:18:31.822Z,92
2024-03-11T00:19:31.614Z,92
2024-03-11T00:20:31.729Z,92
2024-03-11T00:21:31.680Z,92
2024-03-11T00:22:31.575Z,92
2024-03-11T00:23:31.673Z,92
2024-03-11T00:24:31.576Z,92
2024-03-11T00:25:31.616Z,92
2024-03-11T00:26:31.646Z,92
2024-03-11T00:27:31.628Z,92
2024-03-11T00:28:31.629Z,92
2024-03-11T00:29:31.720Z,92
2024-03-11T00:30:31.611Z,92
2024-03-11T00:31:31.657Z,92
2024-03-11T00:32:31.852Z,92
2024-03-11T00:33:31.774Z,92
2024-03-11T00:34:31.630Z,92
2024-03-11T00:35:31.809Z,93
2024-03-11T00:36:31.675Z,93
2024-03-11T00:37:31.648Z,93
2024-03-11T00:38:31.616Z,93
2024-03-11T00:39:31.955Z,93
2024-03-11T00:40:31.713Z,93
2024-03-11T00:41:31.746Z,93
2024-03-11T00:42:31.674Z,93
2024-03-11T00:43:31.658Z,93
2024-03-11T00:44:31.765Z,93
2024-03-11T00:45:31.760Z,93
2024-03-11T00:46:31.586Z,93
2024-03-11T00:47:31.548Z,93
2024-03-11T00:48:31.579Z,93
2024-03-11T00:49:31.497Z,93
2024-03-11T00:50:31.544Z,93
2024-03-11T00:51:31.495Z,93
2024-03-11T00:52:31.627Z,93
2024-03-11T00:53:31.514Z,93
2024-03-11T00:54:31.499Z,93
2024-03-11T00:55:31.525Z,93
2024-03-11T00:56:31.562Z,93
2024-03-11T00:57:31.496Z,93
2024-03-11T00:58:31.519Z,93
2024-03-11T00:59:31.516Z,93
2024-03-11T01:00:31.486Z,93
2024-03-11T01:01:31.508Z,93
2024-03-11T01:02:31.486Z,93
2024-03-11T01:03:31.486Z,93
2024-03-11T01:04:31.554Z,93
2024-03-11T01:05:32.574Z,93
2024-03-11T01:06:35.770Z,93
2024-03-11T01:07:45.567Z,93
2024-03-11T01:08:43.906Z,93
2024-03-11T01:09:47.795Z,93
2024-03-11T01:10:51.786Z,93
2024-03-11T01:11:55.833Z,93
2024-03-11T01:13:00.181Z,93
2024-03-11T01:14:03.849Z,93
2024-03-11T01:15:07.788Z,93
2024-03-11T01:16:11.804Z,93
2024-03-11T01:17:15.809Z,93
2024-03-11T01:18:19.815Z,93
2024-03-11T01:19:23.917Z,93
2024-03-11T01:20:27.790Z,93
2024-03-11T01:21:31.496Z,93
2024-03-11T01:22:31.560Z,93
2024-03-11T01:23:31.524Z,93
2024-03-11T01:24:31.471Z,93
2024-03-11T01:25:31.496Z,93
2024-03-11T01:26:35.802Z,93
2024-03-11T01:27:39.865Z,93
2024-03-11T01:28:43.740Z,93
2024-03-11T01:29:47.970Z,93
2024-03-11T01:30:51.780Z,93
2024-03-11T01:31:55.774Z,93
2024-03-11T01:32:59.912Z,93
2024-03-11T01:34:03.808Z,93
2024-03-11T01:35:08.226Z,93
2024-03-11T01:36:11.761Z,93
2024-03-11T01:37:15.742Z,93
2024-03-11T01:38:19.983Z,93
2024-03-11T01:39:23.802Z,93
2024-03-11T01:40:27.758Z,93
2024-03-11T01:41:31.533Z,93
2024-03-11T01:42:31.516Z,93
2024-03-11T01:43:31.474Z,93
2024-03-11T01:44:31.471Z,93
2024-03-11T01:45:31.494Z,93
2024-03-11T01:46:31.553Z,93
2024-03-11T01:47:31.547Z,93
2024-03-11T01:48:31.494Z,93
2024-03-11T01:49:31.455Z,93
2024-03-11T01:50:31.561Z,93
2024-03-11T01:51:31.453Z,93
2024-03-11T01:52:31.582Z,93
2024-03-11T01:53:31.450Z,93
2024-03-11T01:54:31.479Z,93
2024-03-11T01:55:31.521Z,93
2024-03-11T01:56:31.536Z,93
2024-03-11T01:57:31.465Z,93
2024-03-11T01:58:31.524Z,93
2024-03-11T01:59:31.560Z,93
2024-03-11T02:00:31.518Z,93
2024-03-11T02:01:31.600Z,93
2024-03-11T02:02:31.543Z,93
2024-03-11T02:03:31.484Z,93
2024-03-11T02:04:31.495Z,93
2024-03-11T02:05:31.472Z,93
2024-03-11T02:06:31.500Z,93
2024-03-11T02:07:31.500Z,93
2024-03-11T02:08:31.595Z,93
2024-03-11T02:09:31.467Z,93
2024-03-11T02:10:31.505Z,93
2024-03-11T02:11:31.545Z,93
2024-03-11T02:12:31.516Z,93
2024-03-11T02:13:31.464Z,93
2024-03-11T02:14:31.513Z,93
2024-03-11T02:15:31.485Z,93
2024-03-11T02:16:31.492Z,93
2024-03-11T02:17:33.135Z,93
2024-03-11T02:18:31.567Z,93
2024-03-11T02:19:31.536Z,93
2024-03-11T02:20:31.492Z,93
2024-03-11T02:21:31.446Z,93
2024-03-11T02:22:31.469Z,93
2024-03-11T02:23:31.510Z,93
2024-03-11T02:24:31.525Z,93
2024-03-11T02:25:31.481Z,93
2024-03-11T02:26:31.543Z,93
2024-03-11T02:27:31.469Z,93
2024-03-11T02:28:31.480Z,94
2024-03-11T02:29:31.541Z,94
2024-03-11T02:30:31.526Z,94
2024-03-11T02:31:31.521Z,94
2024-03-11T02:32:31.630Z,94
2024-03-11T02:33:31.506Z,94
2024-03-11T02:34:31.461Z,94
2024-03-11T02:35:31.551Z,94
2024-03-11T02:36:31.518Z,94
2024-03-11T02:37:31.453Z,94
2024-03-11T02:38:31.547Z,94
2024-03-11T02:39:31.484Z,94
2024-03-11T02:40:31.469Z,94
2024-03-11T02:41:31.480Z,94
2024-03-11T02:42:31.501Z,94
2024-03-11T02:43:31.482Z,94
2024-03-11T02:44:31.563Z,94
2024-03-11T02:45:32.010Z,94
2024-03-11T02:46:31.488Z,94
2024-03-11T02:47:31.621Z,94
2024-03-11T02:48:31.489Z,94
2024-03-11T02:49:31.445Z,94
2024-03-11T02:50:31.680Z,94
2024-03-11T02:51:31.511Z,94
2024-03-11T02:52:31.481Z,94
2024-03-11T02:53:31.592Z,94
2024-03-11T02:54:31.470Z,94
2024-03-11T02:55:31.437Z,94
2024-03-11T02:56:31.481Z,94
2024-03-11T02:57:31.466Z,94
2024-03-11T02:58:31.486Z,94
2024-03-11T02:59:31.506Z,94
2024-03-11T03:00:31.468Z,94
2024-03-11T03:01:31.470Z,94
2024-03-11T03:02:31.522Z,94
2024-03-11T03:03:31.466Z,94
2024-03-11T03:04:31.475Z,94
2024-03-11T03:05:31.593Z,94
2024-03-11T03:06:31.454Z,94
2024-03-11T03:07:31.461Z,94
2024-03-11T03:08:31.504Z,94
2024-03-11T03:09:32.501Z,94
2024-03-11T03:10:35.837Z,94
2024-03-11T03:11:39.854Z,94
2024-03-11T03:12:43.831Z,94
2024-03-11T03:13:47.857Z,94
2024-03-11T03:14:51.857Z,94
2024-03-11T03:15:55.816Z,94
2024-03-11T03:16:59.859Z,94
2024-03-11T03:18:04.044Z,94
2024-03-11T03:19:07.821Z,94
2024-03-11T03:20:12.526Z,94
2024-03-11T03:21:15.796Z,94
2024-03-11T03:22:19.827Z,94
2024-03-11T03:23:23.841Z,94
2024-03-11T03:24:27.806Z,94
2024-03-11T03:25:31.497Z,94
2024-03-11T03:26:31.537Z,94
2024-03-11T03:27:31.487Z,94
2024-03-11T03:28:31.410Z,94
2024-03-11T03:29:31.468Z,94
2024-03-11T03:30:31.602Z,94
2024-03-11T03:31:31.484Z,94
2024-03-11T03:32:31.552Z,94
2024-03-11T03:33:31.499Z,94
2024-03-11T03:34:31.490Z,94
2024-03-11T03:35:31.525Z,94
2024-03-11T03:36:31.481Z,94
2024-03-11T03:37:31.498Z,94
2024-03-11T03:38:31.505Z,94
2024-03-11T03:39:31.592Z,94
2024-03-11T03:40:31.442Z,94
2024-03-11T03:41:31.534Z,94
2024-03-11T03:42:31.450Z,94
2024-03-11T03:43:31.470Z,94
2024-03-11T03:44:31.527Z,94
2024-03-11T03:45:31.497Z,94
2024-03-11T03:46:31.453Z,94
2024-03-11T03:47:31.567Z,94
2024-03-11T03:48:31.486Z,94
2024-03-11T03:49:31.460Z,95
2024-03-11T03:50:31.522Z,95
2024-03-11T03:51:31.440Z,95
2024-03-11T03:52:31.478Z,95
2024-03-11T03:53:31.542Z,95
2024-03-11T03:54:31.466Z,95
2024-03-11T03:55:31.464Z,95
2024-03-11T03:56:31.596Z,95
2024-03-11T03:57:31.506Z,95
2024-03-11T03:58:34.918Z,95
2024-03-11T03:59:31.473Z,95
2024-03-11T04:00:31.469Z,95
2024-03-11T04:01:31.488Z,95
2024-03-11T04:02:31.515Z,95
2024-03-11T04:03:31.515Z,95
2024-03-11T04:04:31.464Z,95
2024-03-11T04:05:31.618Z,95
2024-03-11T04:06:31.440Z,95
2024-03-11T04:07:31.455Z,95
2024-03-11T04:08:31.511Z,95
2024-03-11T04:09:31.478Z,95
2024-03-11T04:10:31.558Z,95
2024-03-11T04:11:31.622Z,95
2024-03-11T04:12:31.480Z,95
2024-03-11T04:13:31.450Z,95
2024-03-11T04:14:31.466Z,95
2024-03-11T04:15:31.663Z,95
2024-03-11T04:16:31.479Z,95
2024-03-11T04:17:31.538Z,95
2024-03-11T04:18:31.468Z,95
2024-03-11T04:19:31.436Z,95
2024-03-11T04:20:31.690Z,95
2024-03-11T04:21:31.485Z,95
2024-03-11T04:22:31.433Z,95
2024-03-11T04:23:31.510Z,95
2024-03-11T04:24:31.547Z,95
2024-03-11T04:25:31.843Z,95
2024-03-11T04:26:31.470Z,95
2024-03-11T04:27:31.460Z,95
2024-03-11T04:28:31.484Z,95
2024-03-11T04:29:31.490Z,95
2024-03-11T04:30:31.545Z,95
2024-03-11T04:31:31.467Z,95
2024-03-11T04:32:31.605Z,95
2024-03-11T04:33:31.653Z,95
2024-03-11T04:34:31.461Z,95
2024-03-11T04:35:31.631Z,95
2024-03-11T04:36:31.453Z,95
2024-03-11T04:37:31.469Z,95
2024-03-11T04:38:31.458Z,95
2024-03-11T04:39:31.460Z,95
2024-03-11T04:40:31.529Z,95
2024-03-11T04:41:31.554Z,95
2024-03-11T04:42:31.418Z,95
2024-03-11T04:43:31.461Z,95
2024-03-11T04:44:31.491Z,95
2024-03-11T04:45:31.537Z,95
2024-03-11T04:46:31.430Z,95
2024-03-11T04:47:31.533Z,95
2024-03-11T04:48:31.537Z,95
2024-03-11T04:49:31.483Z,95
2024-03-11T04:50:31.679Z,95
2024-03-11T04:51:31.449Z,95
2024-03-11T04:52:31.469Z,95
2024-03-11T04:53:31.462Z,95
2024-03-11T04:54:31.491Z,95
2024-03-11T04:55:31.755Z,95
2024-03-11T04:56:31.480Z,95
2024-03-11T04:57:31.426Z,95
2024-03-11T04:58:31.454Z,95
2024-03-11T04:59:31.486Z,95
2024-03-11T05:00:31.658Z,95
2024-03-11T05:01:31.488Z,95
2024-03-11T05:02:31.555Z,95
2024-03-11T05:03:31.467Z,95
2024-03-11T05:04:31.475Z,95
2024-03-11T05:05:31.509Z,95
2024-03-11T05:06:31.454Z,95
2024-03-11T05:07:31.483Z,95
2024-03-11T05:08:31.489Z,95
2024-03-11T05:09:31.468Z,95
2024-03-11T05:10:31.509Z,95
2024-03-11T05:11:31.792Z,95
2024-03-11T05:12:31.528Z,95
2024-03-11T05:13:31.429Z,95
2024-03-11T05:14:31.529Z,95
2024-03-11T05:15:31.488Z,95
2024-03-11T05:16:31.517Z,95
2024-03-11T05:17:31.487Z,95
2024-03-11T05:18:31.502Z,95
2024-03-11T05:19:31.531Z,95
2024-03-11T05:20:31.522Z,95
2024-03-11T05:21:31.449Z,95
2024-03-11T05:22:31.466Z,95
2024-03-11T05:23:31.568Z,95
2024-03-11T05:24:31.480Z,95
2024-03-11T05:25:31.841Z,95
2024-03-11T05:26:31.463Z,95
2024-03-11T05:27:31.470Z,94
2024-03-11T05:28:31.458Z,94
2024-03-11T05:29:31.509Z,94
2024-03-11T05:30:31.465Z,94
2024-03-11T05:31:31.467Z,94
2024-03-11T05:32:31.501Z,94
2024-03-11T05:33:31.489Z,94
2024-03-11T05:34:31.455Z,94
2024-03-11T05:35:31.518Z,94
2024-03-11T05:36:31.429Z,94
2024-03-11T05:37:31.432Z,94
2024-03-11T05:38:31.513Z,94
2024-03-11T05:39:31.518Z,94
2024-03-11T05:40:31.481Z,94
2024-03-11T05:41:31.449Z,94
2024-03-11T05:42:31.464Z,94
2024-03-11T05:43:31.474Z,94
2024-03-11T05:44:31.486Z,94
2024-03-11T05:45:32.977Z,94
2024-03-11T05:46:31.489Z,94
2024-03-11T05:47:31.556Z,94
2024-03-11T05:48:31.483Z,94
2024-03-11T05:49:31.435Z,94
2024-03-11T05:50:31.432Z,94
2024-03-11T05:51:31.424Z,94
2024-03-11T05:52:31.439Z,94
2024-03-11T05:53:31.517Z,94
2024-03-11T05:54:31.501Z,94
2024-03-11T05:55:31.501Z,94
2024-03-11T05:56:31.479Z,94
2024-03-11T05:57:31.680Z,94
2024-03-11T05:58:31.484Z,93
2024-03-11T05:59:31.495Z,93
2024-03-11T06:00:32.337Z,93
2024-03-11T06:01:31.486Z,93
2024-03-11T06:02:31.518Z,93
2024-03-11T06:03:31.446Z,92
2024-03-11T06:04:31.451Z,91
2024-03-11T06:05:31.558Z,91
2024-03-11T06:06:31.450Z,91
2024-03-11T06:07:31.456Z,90
2024-03-11T06:08:31.513Z,89
2024-03-11T06:09:32.217Z,89
2024-03-11T06:10:31.451Z,88
2024-03-11T06:11:31.527Z,88
2024-03-11T06:12:31.473Z,88
2024-03-11T06:13:31.436Z,88
2024-03-11T06:14:31.466Z,88
2024-03-11T06:15:31.478Z,89
2024-03-11T06:16:31.426Z,88
2024-03-11T06:17:31.651Z,88
2024-03-11T06:18:31.587Z,88
2024-03-11T06:19:31.493Z,89
2024-03-11T06:20:31.569Z,89
2024-03-11T06:21:31.471Z,89
2024-03-11T06:22:31.460Z,89
2024-03-11T06:23:31.467Z,89
2024-03-11T06:24:31.436Z,88
2024-03-11T06:25:31.488Z,88
2024-03-11T06:26:31.506Z,87
2024-03-11T06:27:31.471Z,87
2024-03-11T06:28:31.426Z,87
2024-03-11T06:29:31.553Z,86
2024-03-11T06:30:31.554Z,86
2024-03-11T06:31:31.482Z,86
2024-03-11T06:32:31.532Z,86
2024-03-11T06:33:31.472Z,86
2024-03-11T06:34:31.472Z,85
2024-03-11T06:35:31.741Z,86
2024-03-11T06:36:31.471Z,85
2024-03-11T06:37:31.456Z,85
2024-03-11T06:38:31.502Z,85
2024-03-11T06:39:31.510Z,85
2024-03-11T06:40:31.515Z,86
2024-03-11T06:41:34.547Z,86
2024-03-11T06:42:31.479Z,87
2024-03-11T06:43:31.548Z,87
2024-03-11T06:44:39.017Z,87
2024-03-11T06:45:31.583Z,86
2024-03-11T06:46:31.454Z,86
2024-03-11T06:47:31.455Z,86
2024-03-11T06:48:31.658Z,86
2024-03-11T06:49:31.438Z,85
2024-03-11T06:50:31.479Z,85
2024-03-11T06:51:31.448Z,85
2024-03-11T06:52:31.541Z,84
2024-03-11T06:53:31.436Z,84
2024-03-11T06:54:31.460Z,83
2024-03-11T06:55:31.568Z,83
2024-03-11T06:56:31.439Z,83
2024-03-11T06:57:31.456Z,83
2024-03-11T06:58:31.497Z,82
2024-03-11T06:59:31.443Z,82
2024-03-11T07:00:31.492Z,82
2024-03-11T07:01:31.444Z,82
2024-03-11T07:02:31.463Z,83
2024-03-11T07:03:31.480Z,83
2024-03-11T07:04:31.454Z,83
2024-03-11T07:05:33.188Z,83
2024-03-11T07:06:31.441Z,82
2024-03-11T07:07:31.511Z,82
2024-03-11T07:08:31.438Z,82
2024-03-11T07:09:31.430Z,82
2024-03-11T07:10:31.446Z,82
2024-03-11T07:11:31.625Z,83
2024-03-11T07:12:31.490Z,83
2024-03-11T07:13:31.427Z,83
2024-03-11T07:14:31.477Z,83
2024-03-11T07:15:31.617Z,83
2024-03-11T07:16:31.447Z,83
2024-03-11T07:17:31.451Z,82
2024-03-11T07:18:31.541Z,83
2024-03-11T07:19:31.469Z,83
2024-03-11T07:20:31.460Z,82
2024-03-11T07:21:31.470Z,82
2024-03-11T07:22:31.491Z,82
2024-03-11T07:23:34.054Z,82
2024-03-11T07:24:31.443Z,82
2024-03-11T07:25:31.479Z,83
2024-03-11T07:26:31.449Z,82
2024-03-11T07:27:31.443Z,82
2024-03-11T07:28:31.438Z,83
2024-03-11T07:29:31.447Z,83
2024-03-11T07:30:31.471Z,82
2024-03-11T07:31:31.501Z,81
2024-03-11T07:32:31.446Z,81
2024-03-11T07:33:31.500Z,81
2024-03-11T07:34:31.457Z,81
2024-03-11T07:35:31.468Z,80
2024-03-11T07:36:31.507Z,79
2024-03-11T07:37:31.464Z,79
2024-03-11T07:38:31.462Z,78
2024-03-11T07:39:31.450Z,78
2024-03-11T07:40:31.421Z,78
2024-03-11T07:41:31.391Z,78
2024-03-11T07:42:31.457Z,78
2024-03-11T07:43:31.545Z,78
2024-03-11T07:44:31.473Z,78
2024-03-11T07:45:31.443Z,77
2024-03-11T07:46:31.452Z,77
2024-03-11T07:47:31.503Z,77
2024-03-11T07:48:31.477Z,76
2024-03-11T07:49:31.478Z,77
2024-03-11T07:50:31.481Z,78
2024-03-11T07:51:31.582Z,79
2024-03-11T07:52:31.440Z,79
2024-03-11T07:53:31.454Z,80
2024-03-11T07:54:31.448Z,80
2024-03-11T07:55:31.485Z,78
2024-03-11T07:56:31.477Z,78
2024-03-11T07:57:31.524Z,79
2024-03-11T07:58:31.441Z,78
2024-03-11T07:59:31.447Z,77
2024-03-11T08:00:31.498Z,77
2024-03-11T08:01:31.448Z,78
2024-03-11T08:02:31.437Z,78
2024-03-11T08:03:31.554Z,78
2024-03-11T08:04:31.433Z,78
2024-03-11T08:05:31.602Z,78
2024-03-11T08:06:31.435Z,77
2024-03-11T08:07:31.423Z,77
2024-03-11T08:08:31.443Z,77
2024-03-11T08:09:31.463Z,77
2024-03-11T08:10:31.479Z,78
2024-03-11T08:11:31.506Z,78
2024-03-11T08:12:31.391Z,77
2024-03-11T08:13:31.437Z,77
2024-03-11T08:14:31.406Z,76
2024-03-11T08:15:31.395Z,77
2024-03-11T08:16:31.406Z,77
2024-03-11T08:17:33.338Z,77
2024-03-11T08:18:31.442Z,77
2024-03-11T08:19:31.430Z,77
2024-03-11T08:20:31.456Z,77
2024-03-11T08:21:31.526Z,76
2024-03-11T08:22:31.442Z,76
2024-03-11T08:23:31.444Z,75
2024-03-11T08:24:31.444Z,75
2024-03-11T08:25:31.590Z,75
2024-03-11T08:26:31.481Z,74
2024-03-11T08:27:31.389Z,74
2024-03-11T08:28:31.440Z,74
2024-03-11T08:29:31.499Z,73
2024-03-11T08:30:31.439Z,74
2024-03-11T08:31:31.413Z,75
2024-03-11T08:32:34.731Z,75
2024-03-11T08:33:31.462Z,74
2024-03-11T08:34:31.433Z,73
2024-03-11T08:35:31.426Z,73
2024-03-11T08:36:31.444Z,73
2024-03-11T08:37:31.437Z,73
2024-03-11T08:38:31.447Z,72
2024-03-11T08:39:31.487Z,72
2024-03-11T08:40:31.465Z,72
2024-03-11T08:41:31.461Z,73
2024-03-11T08:42:31.485Z,72
2024-03-11T08:43:31.422Z,72
2024-03-11T08:44:31.430Z,72
2024-03-11T08:45:31.479Z,72
2024-03-11T08:46:31.485Z,72
2024-03-11T08:47:31.414Z,72
2024-03-11T08:48:31.432Z,71
2024-03-11T08:49:31.536Z,71
2024-03-11T08:50:31.457Z,71
2024-03-11T08:51:31.492Z,71
2024-03-11T08:52:31.400Z,71
2024-03-11T08:53:31.401Z,70
2024-03-11T08:54:31.397Z,70
2024-03-11T08:55:31.453Z,71
2024-03-11T08:56:31.404Z,71
2024-03-11T08:57:31.460Z,71
2024-03-11T08:58:31.429Z,71
2024-03-11T08:59:31.489Z,71
2024-03-11T09:00:31.442Z,71
2024-03-11T09:01:31.480Z,71
2024-03-11T09:02:31.429Z,71
2024-03-11T09:03:31.515Z,71
2024-03-11T09:04:31.419Z,70
2024-03-11T09:05:31.547Z,70
2024-03-11T09:06:31.483Z,69
2024-03-11T09:07:31.462Z,70
2024-03-11T09:08:31.441Z,70
2024-03-11T09:09:31.458Z,70
2024-03-11T09:10:31.418Z,69
2024-03-11T09:11:31.500Z,69
2024-03-11T09:12:31.467Z,69
2024-03-11T09:13:31.468Z,69
2024-03-11T09:14:31.393Z,69
2024-03-11T09:15:31.514Z,68
2024-03-11T09:16:31.480Z,68
2024-03-11T09:17:31.484Z,69
2024-03-11T09:18:31.556Z,68
2024-03-11T09:19:31.408Z,69
2024-03-11T09:20:31.434Z,69
2024-03-11T09:21:31.410Z,69
2024-03-11T09:22:31.439Z,69
2024-03-11T09:23:31.438Z,69
2024-03-11T09:24:31.459Z,69
2024-03-11T09:25:31.733Z,69
2024-03-11T09:26:31.500Z,68
2024-03-11T09:27:31.491Z,68
2024-03-11T09:28:31.390Z,67
2024-03-11T09:29:31.437Z,67
2024-03-11T09:30:31.432Z,68
2024-03-11T09:31:31.450Z,67
2024-03-11T09:32:31.431Z,67
2024-03-11T09:33:31.531Z,67
2024-03-11T09:34:31.407Z,67
2024-03-11T09:35:31.437Z,67
2024-03-11T09:36:31.483Z,66
2024-03-11T09:37:31.440Z,67
2024-03-11T09:38:31.379Z,66
2024-03-11T09:39:31.521Z,67
2024-03-11T09:40:31.425Z,66
2024-03-11T09:41:31.446Z,66
2024-03-11T09:42:31.411Z,66
2024-03-11T09:43:31.423Z,66
2024-03-11T09:44:31.404Z,66
2024-03-11T09:45:32.212Z,66
2024-03-11T09:46:31.420Z,66
2024-03-11T09:47:31.556Z,66
2024-03-11T09:48:31.474Z,66
2024-03-11T09:49:31.395Z,66
2024-03-11T09:50:31.409Z,66
2024-03-11T09:51:31.558Z,66
2024-03-11T09:52:31.410Z,66
2024-03-11T09:53:31.805Z,65
2024-03-11T09:54:31.405Z,66
2024-03-11T09:55:31.433Z,66
2024-03-11T09:56:31.406Z,67
2024-03-11T09:57:31.492Z,66
2024-03-11T09:58:31.418Z,66
2024-03-11T09:59:31.446Z,65
2024-03-11T10:00:31.501Z,65
2024-03-11T10:01:31.476Z,66
2024-03-11T10:02:31.379Z,66
2024-03-11T10:03:31.479Z,66
2024-03-11T10:04:31.411Z,66
2024-03-11T10:05:31.495Z,66
2024-03-11T10:06:31.511Z,66
2024-03-11T10:07:31.447Z,66
2024-03-11T10:08:31.441Z,66
2024-03-11T10:09:31.470Z,66
2024-03-11T10:10:31.419Z,65
2024-03-11T10:11:31.509Z,65
2024-03-11T10:12:31.452Z,65
2024-03-11T10:13:31.418Z,65
2024-03-11T10:14:31.409Z,65
2024-03-11T10:15:31.525Z,65
2024-03-11T10:16:31.439Z,64
2024-03-11T10:17:31.538Z,64
2024-03-11T10:18:31.464Z,65
2024-03-11T10:19:31.442Z,65
2024-03-11T10:20:31.421Z,66
2024-03-11T10:21:31.526Z,65
2024-03-11T10:22:31.409Z,66
2024-03-11T10:23:31.448Z,65
2024-03-11T10:24:31.550Z,65
2024-03-11T10:25:31.509Z,66
2024-03-11T10:26:31.441Z,66
2024-03-11T10:27:31.467Z,65
2024-03-11T10:28:31.388Z,65
2024-03-11T10:29:31.630Z,66
2024-03-11T10:30:31.508Z,66
2024-03-11T10:31:31.422Z,66
2024-03-11T10:32:31.488Z,66
2024-03-11T10:33:31.615Z,66
2024-03-11T10:34:31.417Z,66
2024-03-11T10:35:31.461Z,65
2024-03-11T10:36:31.417Z,66
2024-03-11T10:37:31.437Z,66
2024-03-11T10:38:31.410Z,65
2024-03-11T10:39:31.517Z,65
2024-03-11T10:40:31.449Z,65
2024-03-11T10:41:31.556Z,65
2024-03-11T10:42:31.434Z,65
2024-03-11T10:43:31.432Z,65
2024-03-11T10:44:31.471Z,65
2024-03-11T10:45:31.475Z,65
2024-03-11T10:46:31.408Z,65
2024-03-11T10:47:31.483Z,65
2024-03-11T10:48:31.443Z,65
2024-03-11T10:49:31.430Z,66
2024-03-11T10:50:31.481Z,66
2024-03-11T10:51:34.736Z,65
2024-03-11T10:52:31.447Z,65
2024-03-11T10:53:31.585Z,65
2024-03-11T10:54:31.501Z,65
2024-03-11T10:55:31.563Z,65
2024-03-11T10:56:31.440Z,65
2024-03-11T10:57:31.424Z,65
2024-03-11T10:58:31.591Z,65
2024-03-11T10:59:31.416Z,65
2024-03-11T11:00:31.431Z,65
2024-03-11T11:01:31.459Z,65
2024-03-11T11:02:31.506Z,65
2024-03-11T11:03:31.541Z,65
2024-03-11T11:04:31.418Z,65
2024-03-11T11:05:31.420Z,65
2024-03-11T11:06:31.453Z,65
2024-03-11T11:07:31.416Z,65
2024-03-11T11:08:31.733Z,64
2024-03-11T11:09:31.509Z,64
2024-03-11T11:10:31.613Z,64
2024-03-11T11:11:31.447Z,65
2024-03-11T11:12:31.483Z,64
2024-03-11T11:13:31.408Z,64
2024-03-11T11:14:31.447Z,64
2024-03-11T11:15:31.507Z,65
2024-03-11T11:16:31.376Z,65
2024-03-11T11:17:31.516Z,65
2024-03-11T11:18:32.382Z,65
2024-03-11T11:19:31.449Z,64
2024-03-11T11:20:31.790Z,64
2024-03-11T11:21:31.473Z,64
2024-03-11T11:22:31.404Z,65
2024-03-11T11:23:31.426Z,63
2024-03-11T11:24:34.575Z,64
2024-03-11T11:25:31.560Z,64
2024-03-11T11:26:31.462Z,64
2024-03-11T11:27:31.456Z,64
2024-03-11T11:28:31.424Z,65
2024-03-11T11:29:31.400Z,64
2024-03-11T11:30:31.462Z,64
2024-03-11T11:31:31.445Z,64
2024-03-11T11:32:31.402Z,63
2024-03-11T11:33:31.440Z,64
2024-03-11T11:34:31.441Z,63
2024-03-11T11:35:31.446Z,64
2024-03-11T11:36:31.587Z,64
2024-03-11T11:37:31.390Z,64
2024-03-11T11:38:31.438Z,64
2024-03-11T11:39:31.415Z,64
2024-03-11T11:40:31.395Z,63
2024-03-11T11:41:31.439Z,63
2024-03-11T11:42:31.475Z,64
2024-03-11T11:43:31.420Z,63
2024-03-11T11:44:31.389Z,64
2024-03-11T11:45:31.462Z,64
2024-03-11T11:46:31.776Z,63
2024-03-11T11:47:31.458Z,64
2024-03-11T11:48:31.380Z,64
2024-03-11T11:49:31.396Z,64
2024-03-11T11:50:31.501Z,64
2024-03-11T11:51:31.462Z,64
2024-03-11T11:52:31.386Z,64
2024-03-11T11:53:31.387Z,64
2024-03-11T11:54:36.673Z,64
2024-03-11T11:55:31.520Z,65
2024-03-11T11:56:31.507Z,65
2024-03-11T11:57:31.452Z,63
2024-03-11T11:58:31.398Z,64
2024-03-11T11:59:31.443Z,63
2024-03-11T12:01:31.460Z,63
2024-03-11T12:02:31.481Z,63
2024-03-11T12:03:31.492Z,63
2024-03-11T12:04:31.391Z,64
2024-03-11T12:05:31.409Z,64
2024-03-11T12:06:31.452Z,64
2024-03-11T12:07:31.423Z,64
2024-03-11T12:08:31.428Z,64
2024-03-11T12:09:31.378Z,64
2024-03-11T12:10:31.415Z,64
2024-03-11T12:11:31.420Z,64
2024-03-11T12:12:31.876Z,65
2024-03-11T12:13:31.612Z,64
2024-03-11T12:14:31.845Z,64
2024-03-11T12:15:31.466Z,64
2024-03-11T12:16:31.417Z,65
2024-03-11T12:17:31.431Z,65
2024-03-11T12:18:31.455Z,65
2024-03-11T12:19:31.397Z,65
2024-03-11T12:20:32.793Z,65
2024-03-11T12:21:31.481Z,65
2024-03-11T12:22:31.402Z,65
2024-03-11T12:23:31.413Z,66
2024-03-11T12:24:31.446Z,65
2024-03-11T12:25:31.386Z,65
2024-03-11T12:26:34.345Z,65
2024-03-11T12:27:31.467Z,66
2024-03-11T12:28:31.435Z,66
2024-03-11T12:29:31.398Z,66
2024-03-11T12:30:31.536Z,66
2024-03-11T12:31:31.413Z,65
2024-03-11T12:32:31.458Z,65
2024-03-11T12:33:31.476Z,65
2024-03-11T12:34:31.398Z,66
2024-03-11T12:35:31.455Z,66
2024-03-11T12:36:31.400Z,66
2024-03-11T12:37:33.531Z,66
2024-03-11T12:38:31.380Z,66
2024-03-11T12:39:31.446Z,66
2024-03-11T12:40:31.586Z,66
2024-03-11T12:41:31.442Z,65
2024-03-11T12:42:31.365Z,66
2024-03-11T12:43:32.057Z,66
2024-03-11T12:44:31.385Z,66
2024-03-11T12:45:31.555Z,66
2024-03-11T12:46:31.502Z,66
2024-03-11T12:47:31.474Z,66
2024-03-11T12:48:31.561Z,67
2024-03-11T12:49:31.402Z,67
2024-03-11T12:50:31.444Z,66
2024-03-11T12:51:31.430Z,66
2024-03-11T12:52:31.485Z,66
2024-03-11T12:53:31.461Z,66
2024-03-11T12:54:31.495Z,66
2024-03-11T12:55:31.416Z,67
2024-03-11T12:56:31.403Z,67
2024-03-11T12:57:31.427Z,67
2024-03-11T12:58:31.477Z,67
2024-03-11T12:59:31.349Z,67
2024-03-11T13:00:31.510Z,67
2024-03-11T13:01:31.382Z,67
2024-03-11T13:02:31.479Z,67
2024-03-11T13:03:31.580Z,66
2024-03-11T13:04:31.454Z,66
2024-03-11T13:05:31.440Z,67
2024-03-11T13:06:31.435Z,67
2024-03-11T13:07:31.393Z,66
2024-03-11T13:08:31.456Z,66
2024-03-11T13:09:31.423Z,66
2024-03-11T13:10:31.396Z,66
2024-03-11T13:11:31.429Z,66
2024-03-11T13:12:31.463Z,66
2024-03-11T13:13:31.407Z,66
2024-03-11T13:14:31.409Z,67
2024-03-11T13:15:31.468Z,66
2024-03-11T13:16:31.398Z,67
2024-03-11T13:17:31.439Z,67
2024-03-11T13:18:31.572Z,66
2024-03-11T13:19:31.462Z,67
2024-03-11T13:20:31.414Z,66
2024-03-11T13:21:31.451Z,67
2024-03-11T13:22:31.491Z,67
2024-03-11T13:23:31.337Z,67
2024-03-11T13:24:33.501Z,67
2024-03-11T13:25:31.399Z,67
2024-03-11T13:26:31.409Z,67
2024-03-11T13:27:31.476Z,67
2024-03-11T13:28:31.428Z,67
2024-03-11T13:29:31.397Z,67
2024-03-11T13:30:34.562Z,66
2024-03-11T13:31:32.745Z,67
2024-03-11T13:32:32.224Z,66
2024-03-11T13:33:31.419Z,67
2024-03-11T13:34:31.464Z,67
2024-03-11T13:35:31.385Z,67
2024-03-11T13:36:31.428Z,67
2024-03-11T13:37:31.460Z,67
2024-03-11T13:38:31.416Z,67
2024-03-11T13:39:31.465Z,67
2024-03-11T13:40:31.537Z,67
2024-03-11T13:41:31.655Z,67
2024-03-11T13:42:31.462Z,67
2024-03-11T13:43:31.381Z,67
2024-03-11T13:44:31.419Z,67
2024-03-11T13:45:31.445Z,66
2024-03-11T13:46:31.472Z,66
2024-03-11T13:47:31.400Z,67
2024-03-11T13:48:31.458Z,67
2024-03-11T13:49:31.398Z,67
2024-03-11T13:50:31.419Z,68
2024-03-11T13:51:31.416Z,67
2024-03-11T13:52:31.398Z,68
2024-03-11T13:53:31.453Z,68
2024-03-11T13:54:31.506Z,67
2024-03-11T13:55:31.463Z,68
2024-03-11T13:56:31.421Z,68
2024-03-11T13:57:31.364Z,68
2024-03-11T13:58:31.381Z,68
2024-03-11T13:59:31.412Z,68
2024-03-11T14:00:31.440Z,68
2024-03-11T14:01:31.433Z,68
2024-03-11T14:02:31.418Z,69
2024-03-11T14:03:31.511Z,68
2024-03-11T14:04:31.402Z,69
2024-03-11T14:05:31.490Z,68
2024-03-11T14:06:31.407Z,68
2024-03-11T14:07:31.462Z,68
2024-03-11T14:08:31.414Z,67
2024-03-11T14:09:31.511Z,68
2024-03-11T14:10:31.476Z,67
2024-03-11T14:11:31.489Z,67
2024-03-11T14:12:31.483Z,67
2024-03-11T14:13:31.432Z,68
2024-03-11T14:14:31.377Z,68
2024-03-11T14:15:31.437Z,68
2024-03-11T14:16:31.422Z,68
2024-03-11T14:17:31.338Z,68
2024-03-11T14:18:31.413Z,68
2024-03-11T14:19:31.419Z,68